Latest Weather Observations for Noonamah

IDD60801

Issued at 5:01 pm CST Friday 9 December 2016 (issued every 30 minutes, with the page automatically refreshed every 10 minutes)

About weather observations | Map of weather stations | Latest weather observations for NT | Other Formats
Station Details ID: 014314 Name: NOONAMAH AIRSTRIP Lat: -12.61 Lon: 131.05 Height: 17.5 m
Data from the previous 72 hours. | See also: Recent months at Noonamah
Date/Time
CST
Temp
°C
App
Temp
°C
Dew
Point
°C
Rel
Hum
%
Delta-T
°C
Wind Press
QNH
hPa
Press
MSL
hPa
Rain since
9am
mm
Dir  Spd
km/h
Gust
km/h
Spd
kts
Gust
kts
09/05:00pm 33.0 36.0 22.7 54 7.1 N 11 19 6 10 1004.5 1004.3 0.0
09/04:30pm 32.5 35.9 23.4 58 6.3 N 11 19 6 10 1004.7 1004.5 0.0
09/04:00pm 32.3 33.9 22.1 55 6.9 NNE 17 28 9 15 1004.6 1004.4 0.0
09/03:30pm 34.7 38.7 23.7 52 7.7 NNW 9 15 5 8 1004.6 1004.4 0.0
09/03:00pm 34.9 37.5 21.9 46 8.9 NNE 11 20 6 11 1004.9 1004.7 0.0
09/02:30pm 35.1 38.7 23.8 52 7.9 NNW 11 19 6 10 1005.5 1005.3 0.0
09/02:00pm 36.2 38.0 18.7 35 11.5 ENE 7 17 4 9 1005.8 1005.6 0.0
09/01:30pm 36.2 37.8 19.2 37 11.3 ENE 9 17 5 9 1006.1 1005.9 0.0
09/01:00pm 35.8 39.9 21.6 43 9.7 NE 2 6 1 3 1006.5 1006.3 0.0
09/12:30pm 35.2 38.7 21.8 45 9.2 N 6 11 3 6 1007.0 1006.8 0.0
09/12:00pm 35.0 38.4 22.0 46 8.9 NNE 7 13 4 7 1007.4 1007.2 0.0
09/11:30am 34.4 38.4 22.1 48 8.4 NE 4 6 2 3 1007.7 1007.5 0.0
09/11:00am 32.6 37.0 23.5 58 6.3 WNW 6 7 3 4 1008.0 1007.8 0.0
09/10:30am 32.6 37.7 24.1 61 5.9 WNW 4 9 2 5 1008.0 1007.8 0.0
09/10:00am 31.9 37.8 24.7 65 5.1 WSW 2 6 1 3 1008.6 1008.4 0.0
09/09:30am 30.8 36.6 25.2 72 4.0 NNW 4 6 2 3 1008.7 1008.5 0.0
09/09:00am 30.9 37.0 25.7 74 3.7 WNW 4 6 2 3 1008.5 1008.3 0.2
09/08:30am 30.9 36.8 25.3 72 4.0 NW 4 6 2 3 1008.5 1008.3 0.2
09/08:00am 30.0 36.1 25.7 78 3.0 N 4 7 2 4 1008.3 1008.1 0.2
09/07:30am 28.2 34.4 25.2 84 2.1 NNE 2 6 1 3 1007.9 1007.7 0.2
09/07:00am 27.2 33.8 25.2 89 1.4 CALM 0 2 0 1 1007.5 1007.3 0.2
09/06:30am 25.9 31.8 24.7 93 0.8 ESE 2 4 1 2 1007.3 1007.1 0.2
09/06:00am 25.9 32.3 24.9 94 0.7 CALM 0 0 0 0 1006.7 1006.5 0.2
09/05:30am 25.8 31.9 24.4 92 1.0 CALM 0 0 0 0 1006.3 1006.1 0.2
09/05:00am 25.7 31.7 24.3 92 1.0 CALM 0 0 0 0 1006.1 1005.9 0.2
09/04:30am 25.4 31.0 23.6 90 1.2 CALM 0 2 0 1 1005.8 1005.6 0.2
09/04:00am 25.8 31.5 23.8 89 1.4 CALM 0 4 0 2 1006.0 1005.8 0.2
09/03:30am 25.7 30.6 23.6 88 1.4 ESE 4 4 2 2 1006.1 1005.9 0.2
09/03:00am 25.4 30.1 23.3 88 1.4 SE 4 6 2 3 1006.1 1005.9 0.2
09/02:30am 25.4 30.3 23.1 87 1.6 SE 2 6 1 3 1006.0 1005.8 0.2
09/02:00am 25.4 30.1 23.3 88 1.4 E 4 7 2 4 1006.4 1006.2 0.2
09/01:30am 25.6 31.2 23.5 88 1.4 CALM 0 0 0 0 1006.3 1006.1 0.2
09/01:00am 25.6 30.8 22.9 85 1.8 CALM 0 0 0 0 1006.6 1006.4 0.2
09/12:30am 25.4 30.3 23.1 87 1.6 NE 2 4 1 2 1006.7 1006.5 0.2
09/12:00am 25.3 29.8 23.0 87 1.6 ENE 4 6 2 3 1006.7 1006.5 0.2
 
Date/Time
CST
Temp
°C
App
Temp
°C
Dew
Point
°C
Rel
Hum
%
Delta-T
°C
Wind Press
QNH
hPa
Press
MSL
hPa
Rain since
9am
mm
Dir  Spd
km/h
Gust
km/h
Spd
kts
Gust
kts
08/11:30pm 25.4 30.8 23.3 88 1.4 CALM 0 0 0 0 1006.5 1006.3 0.2
08/11:00pm 25.6 31.0 23.3 87 1.6 CALM 0 0 0 0 1006.5 1006.3 0.2
08/10:30pm 25.6 30.5 22.3 82 2.2 CALM 0 0 0 0 1006.3 1006.1 0.2
08/10:00pm 25.5 29.7 22.4 83 2.1 NNE 4 6 2 3 1006.1 1005.9 0.2
08/09:30pm 25.7 30.4 22.6 83 2.1 WNW 2 6 1 3 1006.0 1005.8 0.2
08/09:00pm 26.4 31.8 23.3 83 2.1 CALM 0 0 0 0 1005.7 1005.5 0.2
08/08:30pm 26.6 31.8 22.9 80 2.5 CALM 0 4 0 2 1005.5 1005.3 0.2
08/08:00pm 26.8 31.1 22.6 78 2.8 WNW 4 7 2 4 1005.2 1005.0 0.2
08/07:30pm 27.7 31.8 23.3 77 3.0 WSW 7 13 4 7 1005.2 1005.0 0.2
08/07:00pm 31.6 36.2 24.7 67 4.8 NW 9 15 5 8 1004.3 1004.1 0.2
08/06:30pm 32.1 37.3 25.7 69 4.6 NW 9 17 5 9 1003.8 1003.6 0.2
08/06:00pm 33.1 37.3 25.4 64 5.5 NW 13 22 7 12 1003.6 1003.4 0.2
08/05:30pm 34.9 39.2 24.2 53 7.5 NW 9 17 5 9 1003.4 1003.2 0.2
08/05:00pm 34.9 38.4 24.2 53 7.5 NW 13 19 7 10 1003.2 1003.0 0.2
08/04:30pm 35.8 39.6 23.4 48 8.7 WNW 9 13 5 7 1003.0 1002.8 0.2
08/04:00pm 35.9 39.2 22.5 46 9.2 NW 9 15 5 8 1003.1 1002.9 0.2
08/03:30pm 36.4 40.1 22.2 44 9.8 WNW 6 9 3 5 1003.4 1003.2 0.2
08/03:00pm 35.1 38.3 21.7 45 9.2 NE 7 13 4 7 1003.7 1003.5 0.2
08/02:30pm 35.5 39.5 23.1 48 8.6 WNW 7 13 4 7 1004.0 1003.8 0.2
08/02:00pm 34.8 38.1 23.2 51 8.1 WNW 11 17 6 9 1004.5 1004.3 0.2
08/01:30pm 34.2 38.7 22.9 51 7.8 N 4 11 2 6 1004.8 1004.6 0.2
08/01:00pm 35.2 39.3 22.9 49 8.5 NNE 6 13 3 7 1005.3 1005.1 0.2
08/12:30pm 33.7 38.3 23.1 54 7.4 NNW 4 7 2 4 1005.9 1005.7 0.2
08/12:00pm 33.6 38.2 24.2 58 6.6 WNW 7 13 4 7 1006.2 1006.0 0.2
08/11:30am 33.0 37.5 23.6 57 6.5 N 6 9 3 5 1006.8 1006.6 0.2
08/11:00am 32.6 37.4 24.1 61 5.9 NW 6 13 3 7 1007.2 1007.0 0.2
08/10:30am 32.8 38.2 25.1 64 5.5 N 6 9 3 5 1007.5 1007.3 0.2
08/10:00am 31.4 36.5 25.0 69 4.5 NNE 7 13 4 7 1008.0 1007.8 0.2
08/09:30am 31.1 36.7 25.4 71 4.0 NNE 6 9 3 5 1008.2 1008.0 0.2
08/09:00am 30.3 36.2 25.4 75 3.5 ENE 4 7 2 4 1008.1 1007.9 4.4
08/08:30am 29.6 36.0 26.6 84 2.2 E 6 9 3 5 1008.0 1007.8 4.4
08/08:00am 28.6 34.7 26.2 87 1.7 ESE 6 9 3 5 1007.9 1007.7 4.4
08/07:30am 27.4 34.4 25.8 91 1.1 CALM 0 2 0 1 1007.6 1007.4 4.4
08/07:00am 26.5 33.1 25.3 93 0.8 CALM 0 0 0 0 1007.3 1007.1 4.4
08/06:30am 26.1 32.7 25.2 95 0.6 CALM 0 0 0 0 1007.1 1006.9 4.4
08/06:00am 26.4 32.8 25.5 95 0.6 E 2 4 1 2 1006.9 1006.7 4.4
08/05:30am 26.6 32.7 25.7 95 0.6 NNE 4 7 2 4 1006.5 1006.3 4.4
08/05:00am 26.9 33.0 26.2 96 0.5 ENE 6 7 3 4 1006.1 1005.9 4.4
08/04:30am 27.1 33.3 26.4 96 0.5 E 6 7 3 4 1005.9 1005.7 4.4
08/04:00am 27.3 33.4 26.2 94 0.8 SE 6 7 3 4 1005.8 1005.6 1.6
08/03:30am 27.3 33.5 26.4 95 0.6 SE 6 9 3 5 1005.8 1005.6 1.6
08/03:00am 27.5 34.9 26.4 94 0.8 CALM 0 0 0 0 1005.6 1005.4 1.6
08/02:30am 27.6 35.0 26.4 93 0.9 CALM 0 0 0 0 1005.7 1005.5 1.6
08/02:00am 27.6 35.0 26.4 93 0.9 CALM 0 0 0 0 1005.8 1005.6 1.6
08/01:30am 27.7 34.8 26.6 94 0.8 NE 2 4 1 2 1006.0 1005.8 1.6
08/01:00am 27.4 33.9 26.3 94 0.8 WNW 4 6 2 3 1006.2 1006.0 1.6
08/12:30am 27.2 34.0 26.1 94 0.8 NW 2 4 1 2 1006.4 1006.2 1.6
08/12:00am 27.4 34.6 26.2 93 0.9 CALM 0 0 0 0 1007.0 1006.8 1.6
 
Date/Time
CST
Temp
°C
App
Temp
°C
Dew
Point
°C
Rel
Hum
%
Delta-T
°C
Wind Press
QNH
hPa
Press
MSL
hPa
Rain since
9am
mm
Dir  Spd
km/h
Gust
km/h
Spd
kts
Gust
kts
07/11:30pm 27.6 35.0 26.4 93 0.9 CALM 0 0 0 0 1007.2 1007.0 1.6
07/11:00pm 27.8 35.3 26.6 93 0.9 CALM 0 0 0 0 1007.5 1007.3 1.6
07/10:30pm 28.2 35.7 26.6 91 1.1 CALM 0 0 0 0 1007.3 1007.1 1.6
07/10:00pm 28.3 35.9 26.7 91 1.1 CALM 0 0 0 0 1007.3 1007.1 1.6
07/09:30pm 28.6 36.2 26.8 90 1.3 CALM 0 0 0 0 1006.8 1006.6 1.6
07/09:00pm 28.8 36.6 27.0 90 1.3 CALM 0 0 0 0 1006.7 1006.5 1.6
07/08:30pm 29.0 36.4 26.4 86 1.9 CALM 0 0 0 0 1006.5 1006.3 1.6
07/08:00pm 29.0 35.1 25.6 82 2.4 NNW 4 4 2 2 1006.1 1005.9 1.6
07/07:30pm 29.3 35.3 25.5 80 2.7 NNW 4 7 2 4 1006.0 1005.8 1.6
07/07:00pm 29.7 35.5 25.7 79 2.8 N 6 9 3 5 1005.7 1005.5 1.6
07/06:30pm 30.5 35.8 25.8 76 3.3 NNW 9 17 5 9 1005.4 1005.2 1.6
07/06:00pm 30.6 36.2 25.7 75 3.5 NW 7 11 4 6 1005.1 1004.9 1.6
07/05:30pm 33.6 36.9 23.9 57 6.8 WNW 13 20 7 11 1004.7 1004.5 0.0
07/05:00pm 34.0 37.6 24.3 57 6.8 WNW 13 24 7 13 1003.9 1003.7 0.0
07/04:30pm 33.5 37.0 24.9 60 6.1 WNW 15 22 8 12 1004.8 1004.6 0.0
07/04:00pm 34.9 39.0 25.7 59 6.6 NW 15 24 8 13 1004.5 1004.3 0.0
07/03:30pm 35.6 39.7 23.2 48 8.6 NW 7 13 4 7 1004.8 1004.6 0.0
07/03:00pm 35.7 39.7 23.7 50 8.4 NW 9 17 5 9 1005.0 1004.8 0.0
07/02:30pm 35.5 39.9 23.8 50 8.2 WNW 7 13 4 7 1005.4 1005.2 0.0
07/02:00pm 35.5 39.3 24.1 51 8.0 WNW 11 15 6 8 1005.8 1005.6 0.0
07/01:30pm 35.1 39.7 23.1 49 8.3 WNW 4 13 2 7 1006.3 1006.1 0.0
07/01:00pm 34.7 38.7 22.7 49 8.3 WSW 6 9 3 5 1006.7 1006.5 0.0
07/12:30pm 34.7 39.3 23.1 51 8.1 WSW 4 13 2 7 1006.9 1006.7 0.0
07/12:00pm 34.2 38.4 23.2 52 7.6 SSW 6 13 3 7 1007.5 1007.3 0.0
07/11:30am 33.6 37.9 22.7 53 7.5 SSW 4 7 2 4 1007.8 1007.6 0.0
07/11:00am 33.4 38.0 23.1 54 7.1 SW 4 7 2 4 1008.3 1008.1 0.0
07/10:30am 32.5 37.6 23.4 58 6.3 WSW 2 6 1 3 1008.8 1008.6 0.0
07/10:00am 32.0 36.3 22.7 58 6.4 W 4 6 2 3 1009.3 1009.1 0.0
07/09:30am 32.4 38.3 24.7 64 5.4 N 2 6 1 3 1009.6 1009.4 0.0
07/09:00am 31.4 37.4 24.8 68 4.6 NNE 2 4 1 2 1009.8 1009.6 0.0
07/08:30am 30.5 36.3 25.1 73 3.8 E 4 7 2 4 1010.0 1009.8 0.0
07/08:00am 29.2 34.8 25.8 82 2.4 SE 7 9 4 5 1010.0 1009.8 0.0
07/07:30am 28.4 35.1 25.4 84 2.1 CALM 0 6 0 3 1009.5 1009.3 0.0
07/07:00am 26.7 33.2 25.1 91 1.1 CALM 0 0 0 0 1009.2 1009.0 0.0
07/06:30am 25.6 31.1 24.7 95 0.6 ESE 4 6 2 3 1008.9 1008.7 0.0
07/06:00am 25.3 31.2 24.1 93 0.8 CALM 0 0 0 0 1008.4 1008.2 0.0
07/05:30am 25.6 31.3 24.4 93 0.8 SSE 2 2 1 1 1008.3 1008.1 0.0
07/05:00am 25.6 31.7 24.4 93 0.8 CALM 0 0 0 0 1007.9 1007.7 0.0
07/04:30am 25.7 31.1 24.5 93 0.8 ESE 4 6 2 3 1007.7 1007.5 0.0
07/04:00am 25.9 32.2 24.7 93 0.8 CALM 0 2 0 1 1007.3 1007.1 0.0
07/03:30am 25.9 31.8 24.7 93 0.8 SE 2 6 1 3 1007.4 1007.2 0.0
07/03:00am 25.9 32.2 24.7 93 0.8 CALM 0 0 0 0 1007.2 1007.0 0.0
07/02:30am 25.8 31.9 24.4 92 1.0 CALM 0 0 0 0 1007.2 1007.0 0.0
07/02:00am 26.0 32.1 24.4 91 1.1 CALM 0 0 0 0 1007.5 1007.3 0.0
07/01:30am 26.6 32.7 24.4 88 1.5 CALM 0 0 0 0 1007.9 1007.7 0.0
07/01:00am 26.8 32.8 24.3 86 1.7 CALM 0 0 0 0 1008.3 1008.1 0.0
07/12:30am 26.8 31.3 23.9 84 2.0 NW 7 11 4 6 1008.5 1008.3 0.0
07/12:00am 27.2 32.2 24.5 85 1.9 NNW 6 9 3 5 1009.0 1008.8 0.0
 
Date/Time
CST
Temp
°C
App
Temp
°C
Dew
Point
°C
Rel
Hum
%
Delta-T
°C
Wind Press
QNH
hPa
Press
MSL
hPa
Rain since
9am
mm
Dir  Spd
km/h
Gust
km/h
Spd
kts
Gust
kts
06/11:30pm 27.8 32.4 24.8 84 2.1 NW 9 17 5 9 1009.5 1009.3 0.0
06/11:00pm 27.2 33.0 25.2 89 1.4 NW 4 7 2 4 1009.4 1009.2 0.0
06/10:30pm 27.4 34.0 25.2 88 1.5 CALM 0 0 0 0 1009.1 1008.9 0.0
06/10:00pm 27.5 33.9 24.9 86 1.8 CALM 0 2 0 1 1008.9 1008.7 0.0
06/09:30pm 27.6 33.6 24.8 85 2.0 SSW 2 4 1 2 1008.8 1008.6 0.0
06/09:00pm 27.8 34.1 24.8 84 2.1 CALM 0 0 0 0 1008.3 1008.1 0.0
06/08:30pm 28.1 33.6 24.7 82 2.4 WSW 4 6 2 3 1007.8 1007.6 0.0
06/08:00pm 28.4 33.6 24.8 81 2.5 SW 6 7 3 4 1007.2 1007.0 0.0
06/07:30pm 29.3 35.8 25.1 78 3.0 CALM 0 6 0 3 1006.6 1006.4 0.0
06/07:00pm 30.6 35.6 24.5 70 4.3 WNW 6 9 3 5 1006.4 1006.2 0.0
06/06:30pm 30.7 35.6 24.6 70 4.3 W 7 15 4 8 1006.0 1005.8 0.0
06/06:00pm 30.9 35.5 24.8 70 4.3 WNW 9 15 5 8 1005.8 1005.6 0.0
06/05:30pm 30.9 35.3 24.5 68 4.5 W 9 13 5 7 1005.4 1005.2 0.0

Other Formats:

Comma delimited format used in spreadsheet applications
http://www.bom.gov.au/fwo/IDD60801/IDD60801.94105.axf

JavaScript Object Notation format (JSON) in row-major order
http://www.bom.gov.au/fwo/IDD60801/IDD60801.94105.json